Airfield :
LOGIN :

Register | Disclaimer

   EN    FR    IT 

 










Legend :    VFR   Marginal VFR   IFR   Intensive IFR   Very Intensive IFR
Visi :
Ceiling :
>= 8 km
>= 3000ft
5 to 8 km
1000 to 3000 ft
1500m to 5 km
500 to 1000 ft
800 to 1500m
200 to 500 ft
< 800m
< 200 ft
Symbols :   Thunderstorms  Fog  Heavy snow  Heavy precipitations  Wind > 20 kt
SIGMETs :     Misc.  Thunderstorms  Icing  Turbulence  Mountain Waves  Volcanic Ashes






- Airport Elevation : 604 ft
- IATA code : LCJ


EPLL - Lodz

CURRENT METAR :
  • 310800Z 35008KT 290V020 CAVOK 12/10 Q1013

EXPIRED METARs :
  • 310730Z 34009KT 310V020 9999 SCT044 12/10 Q1012
  • 310700Z 33006KT 300V010 9999 FEW040 11/10 Q1012
  • 310630Z 33008KT 300V360 9999 -RA FEW040 11/10 Q1012
  • 310600Z 33007KT 300V010 9999 BKN038 11/10 Q1012
  • 310530Z 32008KT 290V010 9999 -RA OVC037 10/10 Q1012

TAF TAF EPLL
Valid from the 31 at 06:00 until the 01 at 06:00 UTC


310530Z 3106/0106 33015KT 9999 SCT009 BKN030
BECMG 3107/3109 03015KT
PROB40
TEMPO 3110/3117 03018G28KT
BECMG 3117/3119 01005KT



MET'MAP, your aeronautical weather chart ! - Copyright ORBIFLY December 2007 - Disclaimer

ORBIFLY MET'MAP TEAM :

Programming & Development : Alexandra Zaïnal
Concept & original design : Baudouin d'Aumeries
Assistance for programming : Marc-Olivier Méhu
Technical & hardware support : Manuel Goepfert

Contact : metmap@orbifly.com




SOURCES & CREDITS :

   NOAA